Lazy 5 Park, Sparks, Nevada Weather observations

Data are for 10 minute period ending at time listed.
 Day   Time   Solar   Ave.   Ave.  Ave.  Vector  Max.   Baro.   Total    
  of    of     Rad.   Air    Rel.  Wind   Wind   Wind  Press.  Precip.   
Year   Day            Temp.  Hum.  Speed  Dir.   Gust                    
2020   (PST)  Kw/m2    F      %     mph   deg.    mph    mb.     in.     
-------------------------------------------------------------------------
 335   10:50   0.47   41.9    43    1.5   139     4.9   99999.0    0.00 
 335   11:00   0.49   41.7    43    2.2   174     4.2   99999.0    0.00 
 335   11:10   0.50   41.6    42    0.8   260     3.8   99999.0    0.00 
 335   11:20   0.51   43.1    38    0.3   212     2.4   99999.0    0.00 
 335   11:30   0.51   45.2    34    0.4   196     2.4   99999.0    0.00 
 335   11:40   0.52   46.9    32    1.8    55     3.8   99999.0    0.00 
 335   11:50   0.52   48.8    30    1.6   111     6.0   99999.0    0.00 
 335   12:00   0.56   49.9    26    3.3   130     6.7   99999.0    0.00 
 335   12:10   0.52   50.5    26    3.0   158     4.9   99999.0    0.00 
 335   12:20   0.48   50.9    30    2.3   176     4.9   99999.0    0.00 
 335   12:30   0.52   51.5    27    3.8   167     6.3   99999.0    0.00 
 335   12:40   0.52   52.0    27    3.3   196     5.6   99999.0    0.00 
 335   12:50   0.51   52.3    25    5.3   189     7.8   99999.0    0.00 
 335   13:00   0.50   53.1    25    5.5   195     8.1   99999.0    0.00 
 335   13:10   0.49   54.3    24    4.5   183     7.1   99999.0    0.00 
 335   13:20   0.48   55.9    21    3.8   154     7.1   99999.0    0.00 
 335   13:30   0.47   56.9    20    1.8   179     6.0   99999.0    0.00 
 335   13:40   0.47   57.6    21    0.8   193     9.2   99999.0    0.00 
 335   13:50   0.43   57.2    21    6.4   185     9.9   99999.0    0.00 
 335   14:00   0.40   57.9    19    7.5   184    10.6   99999.0    0.00 
 335   14:10   0.40   58.7    18    6.9   196     8.9   99999.0    0.00 
 335   14:20   0.39   59.9    16    3.8   268     6.7   99999.0    0.00 
 335   14:30   0.39   60.8    15    6.5   250    15.3   99999.0    0.00 
 335   14:40   0.38   61.1    12   12.8   254    18.5   99999.0    0.00 
 335   14:50   0.30   61.0    12   11.9   261    17.1   99999.0    0.00 
 335   15:00   0.30   60.1    13   11.8   257    18.1   99999.0    0.00 
 335   15:10   0.20   60.2    13   11.1   257    18.1   99999.0    0.00 
 335   15:20   0.14   59.3    13   12.9   258    18.1   99999.0    0.00 
 335   15:30   0.17   59.0    13   11.6   264    16.4   99999.0    0.00 
 335   15:40   0.17   58.7    14   10.2   265    13.1   99999.0    0.00 
 335   15:50   0.19   58.4    14   10.3   277    14.2   99999.0    0.00 
 335   16:00   0.16   58.1    15    8.1   279    13.5   99999.0    0.00 
 335   16:10   0.09   57.1    16    7.3   273    10.6   99999.0    0.00 
 335   16:20   0.05   56.2    17    7.0   261    11.0   99999.0    0.00 
 335   16:30   0.04   55.6    18    4.9   272    11.4   99999.0    0.00 
 335   16:40   0.02   54.6    19    2.1   292     5.3   99999.0    0.00 
 335   16:50   0.01   51.9    21    3.7    67     5.6   99999.0    0.00 
 335   17:00   0.00   49.6    24    7.0    33    10.6   99999.0    0.00 
 335   17:10   0.00   49.7    24    3.6   340     6.3   99999.0    0.00 
 335   17:20   0.00   50.3    23    3.9   311     6.0   99999.0    0.00 
 335   17:30   0.00   49.4    24    4.5   278     6.3   99999.0    0.00 
 335   17:40   0.00   49.8    24    4.3   271     6.0   99999.0    0.00 
 335   17:50   0.00   47.5    26    5.6   303     7.4   99999.0    0.00 
 335   18:00   0.00   46.2    27    5.5   272     7.8   99999.0    0.00 
 335   18:10   0.00   46.7    27    2.8   248     5.6   99999.0    0.00 
 335   18:20   0.00   45.4    29    2.9   324     5.3   99999.0    0.00 
 335   18:30   0.00   41.9    33    3.3   258     4.9   99999.0    0.00 
 335   18:40   0.00   41.0    35    0.6   300     2.8   99999.0    0.00 
 335   18:50   0.00   40.3    36    3.1     6     5.3   99999.0    0.00 
 335   19:00   0.00   36.8    41    3.0   102     5.6   99999.0    0.00 
 335   19:10   0.00   37.1    42    1.8   206     3.8   99999.0    0.00 
 335   19:20   0.00   39.6    38    1.2   290     3.1   99999.0    0.00 
 335   19:30   0.00   42.6    34    3.5   269     4.6   99999.0    0.00 
 335   19:40   0.00   43.9    33    3.6   249     5.3   99999.0    0.00 
 335   19:50   0.00   44.6    32    5.5   231     7.1   99999.0    0.00 
 335   20:00   0.00   43.0    34    4.4   127     8.1   99999.0    0.00 
 335   20:10   0.00   38.0    43    2.2    33     6.3   99999.0    0.00 
 335   20:20   0.00   37.2    44    3.2   196     6.0   99999.0    0.00 
 335   20:30   0.00   41.1    37    3.6   281     5.3   99999.0    0.00 
 335   20:40   0.00   43.4    33    6.3   295     8.5   99999.0    0.00 
 335   20:50   0.00   43.5    33    7.7   287    13.1   99999.0    0.00 
 335   21:00   0.00   41.5    36    4.4   307     7.4   99999.0    0.00 
 335   21:10   0.00   38.8    41    3.3    31     6.3   99999.0    0.00 
 335   21:20   0.00   38.2    42    5.7   330     8.1   99999.0    0.00 
 335   21:30   0.00   37.2    43    5.9   293     7.8   99999.0    0.00 
 335   21:40   0.00   35.4    48    5.8     6     8.1   99999.0    0.00 
 335   21:50   0.00   35.7    47    4.6   317     6.7   99999.0    0.00 
 335   22:00   0.00   36.7    44    5.4   298     7.1   99999.0    0.00 
 335   22:10   0.00   36.6    45    6.6   297     7.4   99999.0    0.00 
 335   22:20   0.00   37.3    43    6.7   298     8.1   99999.0    0.00 
 335   22:30   0.00   36.4    45    6.0   326     7.8   99999.0    0.00 
 335   22:40   0.00   35.0    48    6.9   308     9.2   99999.0    0.00 
 335   22:50   0.00   36.7    44    6.4   292     8.1   99999.0    0.00 
 335   23:00   0.00   35.6    46    2.4    66     5.6   99999.0    0.00 
 335   23:10   0.00   34.3    49    2.5   232     4.6   99999.0    0.00 
 335   23:20   0.00   36.0    50    6.2   300     7.8   99999.0    0.00 
 335   23:30   0.00   37.2    50    6.9   301     8.9   99999.0    0.00 
 335   23:40   0.00   36.7    53    7.5   304     8.9   99999.0    0.00 
 335   23:50   0.00   35.9    55    4.1   336     7.1   99999.0    0.00 
 336    0:00   0.00   34.2    59    2.0     1     3.8   99999.0    0.00 
 336    0:10   0.00   33.9    60    3.1    56     4.9   99999.0    0.00 
 336    0:20   0.00   30.9    64    1.5   221     4.6   99999.0    0.00 
 336    0:30   0.00   32.6    62    1.6   249     4.2   99999.0    0.00 
 336    0:40   0.00   30.4    67    0.0   255     0.0   99999.0    0.00 
 336    0:50   0.00   30.9    64    0.0   158     0.0   99999.0    0.00 
 336    1:00   0.00   29.7    66    0.0   331     0.0   99999.0    0.00 
 336    1:10   0.00   28.5    69    0.0    48     0.0   99999.0    0.00 
 336    1:20   0.00   27.0    68    0.0    16     0.0   99999.0    0.00 
 336    1:30   0.00   26.5    67    0.0   360     0.0   99999.0    0.00 
 336    1:40   0.00   26.1    71    0.0   271     0.0   99999.0    0.00 
 336    1:50   0.00   27.0    70    0.0   345     0.0   99999.0    0.00 
 336    2:00   0.00   25.7    72    0.0   352     0.0   99999.0    0.00 
 336    2:10   0.00   25.5    74    0.0   268     0.0   99999.0    0.00 
 336    2:20   0.00   25.4    74    0.0   196     0.0   99999.0    0.00 
 336    2:30   0.00   25.6    75    0.0   173     1.0   99999.0    0.00 
 336    2:40   0.00   24.4    75    0.0   207     0.0   99999.0    0.00 
 336    2:50   0.00   25.7    78    0.0   297     0.0   99999.0    0.00 
 336    3:00   0.00   23.3    75    0.0    33     0.0   99999.0    0.00 
 336    3:10   0.00   21.7    81    0.0    82     0.0   99999.0    0.00 
 336    3:20   0.00   22.6    83    0.0   336     0.0   99999.0    0.00 
 336    3:30   0.00   23.0    80    0.0    57     0.0   99999.0    0.00 
 336    3:40   0.00   23.1    81    0.0   296     0.0   99999.0    0.00 
 336    3:50   0.00   24.1    80    0.0    31     0.0   99999.0    0.00 
 336    4:00   0.00   23.4    79    0.0    20     0.0   99999.0    0.00 
 336    4:10   0.00   21.8    82    0.0   180     0.0   99999.0    0.00 
 336    4:20   0.00   20.4    83    0.0    64     0.0   99999.0    0.00 
 336    4:30   0.00   20.0    85    0.3   318     1.7   99999.0    0.00 
 336    4:40   0.00   21.5    85    0.0   259     0.0   99999.0    0.00 
 336    4:50   0.00   22.5    83    0.8   307     3.5   99999.0    0.00 
 336    5:00   0.00   23.7    81    2.7   225     4.6   99999.0    0.00 
 336    5:10   0.00   22.5    80    0.0   359     0.0   99999.0    0.00 
 336    5:20   0.00   20.6    83    0.0    37     0.0   99999.0    0.00 
 336    5:30   0.00   19.3    85    0.0    15     0.0   99999.0    0.00 
 336    5:40   0.00   19.4    88    0.0   334     0.0   99999.0    0.00 
 336    5:50   0.00   19.6    88    0.0   351     0.0   99999.0    0.00 
 336    6:00   0.00   19.5    90    0.0     4     0.0   99999.0    0.00 
 336    6:10   0.00   20.1    89    0.0    34     0.0   99999.0    0.00 
 336    6:20   0.00   18.6    89    0.0   212     0.0   99999.0    0.00 
 336    6:30   0.00   18.9    90    0.0   225     0.0   99999.0    0.00 
 336    6:40   0.00   19.7    90    0.0   213     0.0   99999.0    0.00 
 336    6:50   0.00   19.9    90    0.0   342     0.0   99999.0    0.00 
 336    7:00   0.00   19.2    90    0.0     2     0.0   99999.0    0.00 
 336    7:10   0.00   18.0    90    0.0     8     0.0   99999.0    0.00 
 336    7:20   0.01   17.8    91    2.4   346     4.2   99999.0    0.00 
 336    7:30   0.01   17.6    91    0.1    42     1.3   99999.0    0.00 
 336    7:40   0.04   17.0    92    0.0    72     0.0   99999.0    0.00 
 336    7:50   0.07   18.1    92    0.5   352     2.1   99999.0    0.00 
 336    8:00   0.09   19.9    91    0.4   347     2.4   99999.0    0.00 
 336    8:10   0.12   21.2    88    0.0    57     0.0   99999.0    0.00 
 336    8:20   0.14   23.1    86    0.0    41     0.0   99999.0    0.00 
 336    8:30   0.17   25.6    82    0.0    30     0.0   99999.0    0.00 
 336    8:40   0.19   27.2    78    0.0   247     0.0   99999.0    0.00 
 336    8:50   0.22   28.6    76    0.0   112     0.0   99999.0    0.00 
 336    9:00   0.24   30.7    72    0.0    39     0.0   99999.0    0.00 
 336    9:10   0.27   31.8    71    0.0   207     0.0   99999.0    0.00 
 336    9:20   0.29   33.4    67    0.0   207     0.0   99999.0    0.00 
 336    9:30   0.32   33.9    66    0.0   223     0.0   99999.0    0.00 
 336    9:40   0.34   35.3    63    0.0   263     0.0   99999.0    0.00 
 336    9:50   0.36   36.8    61    0.2    60     2.4   99999.0    0.00 
 336   10:00   0.38   37.9    58    0.3    48     2.4   99999.0    0.00 
 336   10:10   0.40   39.6    55    0.0   100     0.0   99999.0    0.00 
 336   10:20   0.42   41.5    51    0.0    90     1.0   99999.0    0.00 
 336   10:30   0.44   42.5    49    1.8   119     4.9   99999.0    0.00 
 336   10:40   0.45   43.1    48    3.2    97     7.1   99999.0    0.00 

Return to Lazy 5 Park graphs page.


Western Regional Climate Center,wrcc@dri.edu